Time;durP1;ratioP1;P1;durP2;ratioP2;P2;SDS_P1;SDS_P2;PMS_P1;PMS_P2;Temp;Humidity;BMP_temperature;BMP_pressure;BME280_temperature;BME280_humidity;BME280_pressure;Samples;Min_cycle;Max_cycle;Signal;HPM_P1;HPM_P2
2022/01/27 00:07:45;;;;;;;;;52.25;41.25;;;;;5.51;65.13;103032.66;6131822;23;44720;-90
2022/01/27 00:10:29;;;;;;;;;53.00;39.50;;;;;5.43;65.07;103018.28;6182540;22;45360;-94
2022/01/27 00:13:12;;;;;;;;;54.00;41.25;;;;;5.68;64.92;103064.00;6252209;22;45301;-91
2022/01/27 00:15:47;;;;;;;;;49.00;43.00;;;;;5.55;64.91;103033.69;6250105;22;48071;-92
2022/01/27 00:18:18;;;;;;;;;45.00;39.25;;;;;5.73;65.09;103054.69;6280577;22;45358;-91
2022/01/27 00:20:49;;;;;;;;;45.25;38.00;;;;;5.52;64.90;103010.91;6296578;22;45232;-90
2022/01/27 00:23:15;;;;;;;;;54.25;40.00;;;;;5.62;64.82;103011.44;6310063;22;45168;-91
2022/01/27 00:25:44;;;;;;;;;48.00;36.50;;;;;5.62;64.97;103027.09;6282714;22;46776;-92
2022/01/27 00:28:18;;;;;;;;;47.25;39.00;;;;;5.78;64.69;103040.16;6285530;22;45413;-94
2022/01/27 00:30:48;;;;;;;;;57.25;40.00;;;;;5.77;64.78;103037.47;6286126;22;45194;-90
2022/01/27 00:33:14;;;;;;;;;46.50;37.50;;;;;5.63;64.59;103007.97;6286366;22;45420;-94
2022/01/27 00:35:57;;;;;;;;;50.25;37.75;;;;;5.68;64.59;103012.63;6282265;22;47875;-88
2022/01/27 00:38:23;;;;;;;;;54.50;40.50;;;;;5.68;64.30;103003.91;6282453;22;44888;-91
2022/01/27 00:40:54;;;;;;;;;38.25;31.75;;;;;5.84;64.44;103026.53;6285026;22;45356;-93
2022/01/27 00:43:19;;;;;;;;;49.75;40.00;;;;;5.74;64.61;103005.09;6293088;22;45393;-88
2022/01/27 00:45:45;;;;;;;;;47.50;41.00;;;;;5.87;64.88;103026.66;6283383;22;45311;-89
2022/01/27 00:48:11;;;;;;;;;44.50;38.25;;;;;5.87;64.27;103018.84;6289229;22;45408;-94
2022/01/27 00:50:40;;;;;;;;;42.75;35.75;;;;;5.68;64.39;102983.88;6282429;22;45309;-90
2022/01/27 00:53:26;;;;;;;;;47.50;38.25;;;;;5.90;64.60;103025.09;6280937;22;45561;-90
2022/01/27 00:55:52;;;;;;;;;49.25;38.00;;;;;5.86;64.46;103007.47;6278963;22;47529;-89
2022/01/27 01:01:08;;;;;;;;;46.50;37.25;;;;;5.96;64.39;103016.72;6279478;22;45368;-89
2022/01/27 01:03:42;;;;;;;;;46.50;36.25;;;;;5.96;64.20;103006.25;6279384;22;45560;-89
2022/01/27 01:06:32;;;;;;;;;41.75;33.75;;;;;5.80;64.26;102977.50;6277075;22;47201;-88
2022/01/27 01:11:57;;;;;;;;;50.50;40.25;;;;;5.82;64.25;102968.91;6275733;22;45395;-89
2022/01/27 01:17:29;;;;;;;;;47.00;37.75;;;;;6.01;63.97;102994.31;6281520;22;45164;-89
2022/01/27 01:30:53;;;;;;;;;48.75;39.25;;;;;5.89;64.40;102963.19;6310902;22;45236;-88
2022/01/27 01:33:34;;;;;;;;;51.50;40.50;;;;;5.84;64.16;102956.84;6313565;22;45142;-88
2022/01/27 01:36:12;;;;;;;;;45.50;38.00;;;;;5.83;64.51;102948.94;6310327;22;45429;-87
2022/01/27 01:38:40;;;;;;;;;49.75;37.75;;;;;5.78;64.39;102943.47;6289595;22;47363;-88
2022/01/27 01:41:06;;;;;;;;;47.25;40.25;;;;;5.70;64.36;102936.94;6319846;22;45259;-87
2022/01/27 01:43:35;;;;;;;;;43.50;39.00;;;;;5.69;64.49;102919.44;6290549;22;45166;-89
2022/01/27 01:46:00;;;;;;;;;53.25;39.00;;;;;5.67;64.17;102929.84;6283362;22;45227;-89
2022/01/27 01:48:33;;;;;;;;;48.50;37.25;;;;;5.68;64.47;102930.72;6284473;22;47113;-89
2022/01/27 01:51:00;;;;;;;;;52.25;39.75;;;;;5.67;64.41;102931.56;6284251;22;45145;-89
2022/01/27 01:53:29;;;;;;;;;41.00;34.25;;;;;5.78;64.67;102945.19;6285929;22;45255;-88
2022/01/27 01:55:57;;;;;;;;;44.25;37.25;;;;;5.69;64.41;102927.28;6284034;22;45220;-88
2022/01/27 01:58:22;;;;;;;;;49.50;39.25;;;;;5.74;64.67;102931.94;6285810;22;48182;-87
2022/01/27 02:00:50;;;;;;;;;46.50;41.25;;;;;5.66;64.42;102914.06;6311613;22;45193;-88
2022/01/27 02:03:18;;;;;;;;;52.00;40.25;;;;;5.75;64.64;102923.28;6313865;22;45368;-88
2022/01/27 02:05:49;;;;;;;;;45.50;36.75;;;;;5.91;64.59;102951.13;6286331;22;45453;-90
2022/01/27 02:20:00;;;;;;;;;58.25;45.25;;;;;5.86;64.46;102923.84;6310587;22;45722;-89
2022/01/27 02:22:37;;;;;;;;;44.25;39.75;;;;;5.79;64.31;102913.88;6313055;22;45101;-90
2022/01/27 02:25:06;;;;;;;;;48.75;37.75;;;;;5.86;64.76;102923.84;6286315;22;45178;-89
2022/01/27 02:27:37;;;;;;;;;54.00;42.25;;;;;5.81;64.96;102904.41;6284986;22;45567;-90
2022/01/27 02:30:03;;;;;;;;;59.00;40.50;;;;;5.99;64.69;102940.16;6288855;22;47000;-88
2022/01/27 02:32:31;;;;;;;;;49.75;42.00;;;;;5.85;64.79;102908.94;6302620;22;44876;-88
2022/01/27 02:35:04;;;;;;;;;55.75;40.75;;;;;5.88;64.83;102909.13;6330032;22;44687;-89
2022/01/27 02:37:29;;;;;;;;;55.25;40.50;;;;;5.94;64.82;102914.69;6331458;22;45219;-89
2022/01/27 02:40:00;;;;;;;;;52.75;40.00;;;;;5.82;64.70;102887.00;6302958;22;46778;-88
2022/01/27 02:42:31;;;;;;;;;47.00;38.75;;;;;6.03;64.37;102929.06;6302611;22;44693;-89
2022/01/27 02:45:11;;;;;;;;;55.50;43.50;;;;;6.01;64.44;102922.84;6312917;22;45260;-89
2022/01/27 02:47:42;;;;;;;;;51.00;37.75;;;;;5.83;64.65;102878.38;6293823;22;45592;-87
2022/01/27 02:50:07;;;;;;;;;51.00;40.50;;;;;5.90;64.68;102880.44;6329317;22;45596;-88
2022/01/27 02:52:38;;;;;;;;;53.00;42.25;;;;;6.00;64.66;102907.97;6301226;22;45456;-87
2022/01/27 02:55:04;;;;;;;;;47.25;39.75;;;;;6.03;64.62;102914.25;6289712;22;45231;-87
2022/01/27 02:57:37;;;;;;;;;51.25;39.75;;;;;5.87;64.39;102880.28;6317595;22;45258;-89
2022/01/27 03:00:06;;;;;;;;;61.25;42.25;;;;;5.81;64.49;102878.28;6314641;22;45565;-89
2022/01/27 03:02:41;;;;;;;;;57.25;41.00;;;;;5.81;64.21;102880.00;6316580;22;45374;-87
2022/01/27 03:05:07;;;;;;;;;54.50;37.75;;;;;5.93;64.55;102897.22;6287615;22;45364;-88
2022/01/27 03:07:36;;;;;;;;;51.75;41.75;;;;;5.83;64.86;102881.88;6289201;22;45211;-89
2022/01/27 03:10:04;;;;;;;;;55.50;44.75;;;;;5.91;64.61;102892.72;6288970;22;47173;-87
2022/01/27 03:12:39;;;;;;;;;50.75;42.50;;;;;5.90;65.07;102883.06;6290841;22;45424;-87
2022/01/27 03:15:23;;;;;;;;;49.75;41.00;;;;;5.97;64.76;102908.72;6319173;22;45374;-89
2022/01/27 03:17:48;;;;;;;;;45.25;38.00;;;;;5.84;64.63;102882.75;6316903;22;45140;-89
2022/01/27 03:20:16;;;;;;;;;55.00;44.50;;;;;5.95;64.80;102899.91;6264728;22;47682;-88
2022/01/27 03:22:44;;;;;;;;;58.00;44.25;;;;;5.82;64.93;102884.38;6251629;22;45637;-90
2022/01/27 03:25:19;;;;;;;;;53.50;42.50;;;;;5.83;65.55;102894.03;6248959;22;45217;-90
2022/01/27 03:27:47;;;;;;;;;49.00;42.00;;;;;5.88;64.84;102893.44;6277747;22;45443;-89
2022/01/27 03:30:17;;;;;;;;;53.00;41.00;;;;;5.83;64.93;102881.88;6248658;22;46136;-90
2022/01/27 03:32:45;;;;;;;;;52.00;44.25;;;;;5.74;64.79;102879.66;6277034;22;45315;-89
2022/01/27 03:35:11;;;;;;;;;55.50;43.25;;;;;5.90;64.91;102904.84;6249697;22;45233;-89
2022/01/27 03:37:39;;;;;;;;;56.00;45.00;;;;;5.78;65.12;102875.50;6254459;22;45161;-89
2022/01/27 03:40:05;;;;;;;;;58.25;44.50;;;;;5.78;65.06;102875.50;6250908;22;45466;-89
2022/01/27 03:42:31;;;;;;;;;59.25;44.75;;;;;5.84;65.22;102886.25;6251370;22;45347;-87
2022/01/27 03:44:59;;;;;;;;;54.00;42.25;;;;;5.93;64.83;102896.28;6249854;22;45421;-89
2022/01/27 03:47:34;;;;;;;;;54.50;40.50;;;;;5.71;65.10;102862.94;6250620;22;45382;-90
2022/01/27 03:50:04;;;;;;;;;62.25;45.50;;;;;5.86;65.50;102883.75;6251745;22;45604;-89
2022/01/27 03:52:35;;;;;;;;;55.50;43.00;;;;;6.00;65.10;102903.66;6275347;22;45298;-89
2022/01/27 03:55:05;;;;;;;;;54.25;41.25;;;;;5.94;65.18;102887.66;6250744;22;45216;-89
2022/01/27 03:57:36;;;;;;;;;54.25;42.25;;;;;5.94;65.10;102870.25;6253120;22;45661;-87
2022/01/27 04:00:03;;;;;;;;;55.25;41.00;;;;;5.93;64.88;102875.34;6251772;22;48083;-87
2022/01/27 04:02:37;;;;;;;;;50.75;40.00;;;;;6.03;64.81;102888.09;6253574;22;44913;-88
2022/01/27 04:05:03;;;;;;;;;60.50;44.00;;;;;5.91;65.09;102870.06;6251947;22;45240;-89
2022/01/27 04:07:30;;;;;;;;;57.50;42.00;;;;;6.09;65.07;102890.13;6251496;22;45414;-87
2022/01/27 04:09:56;;;;;;;;;48.50;41.75;;;;;6.02;64.79;102882.81;6253797;22;47306;-88
2022/01/27 04:12:29;;;;;;;;;54.00;41.50;;;;;6.07;64.76;102889.19;6254261;22;45189;-88
2022/01/27 04:14:54;;;;;;;;;58.00;44.00;;;;;6.07;64.94;102884.84;6257297;22;45377;-88
2022/01/27 04:17:22;;;;;;;;;54.25;42.00;;;;;5.97;64.98;102873.00;6255307;22;45352;-90
2022/01/27 04:19:49;;;;;;;;;59.00;47.75;;;;;6.05;65.22;102880.34;6271027;22;46579;-88
2022/01/27 04:22:25;;;;;;;;;58.50;39.75;;;;;6.10;65.12;102894.56;6286609;22;45176;-88
2022/01/27 04:24:52;;;;;;;;;57.50;43.00;;;;;6.01;64.66;102875.78;6287151;22;45206;-89
2022/01/27 04:27:32;;;;;;;;;53.25;41.75;;;;;5.87;64.74;102857.66;6313792;22;45541;-88
2022/01/27 04:30:02;;;;;;;;;50.00;40.25;;;;;6.00;65.02;102872.28;6312596;22;46256;-87
2022/01/27 04:32:40;;;;;;;;;54.75;43.50;;;;;6.10;64.97;102891.94;6284339;22;45195;-89
2022/01/27 04:35:08;;;;;;;;;49.25;40.75;;;;;6.12;65.00;102898.13;6313502;22;45345;-90
2022/01/27 04:37:36;;;;;;;;;58.25;43.75;;;;;6.13;65.03;102892.09;6312656;22;45213;-89
2022/01/27 04:40:09;;;;;;;;;58.00;44.00;;;;;6.14;65.01;102892.13;6312576;22;46118;-89
2022/01/27 04:42:54;;;;;;;;;54.75;44.50;;;;;6.06;64.83;102876.91;6283945;22;45563;-89
2022/01/27 04:45:31;;;;;;;;;49.00;40.75;;;;;6.11;65.08;102878.03;6312986;22;45103;-90
2022/01/27 04:48:09;;;;;;;;;54.75;44.00;;;;;5.99;65.03;102854.81;6285360;22;45660;-89
2022/01/27 04:50:45;;;;;;;;;52.25;36.25;;;;;6.02;64.99;102857.56;6284991;22;47957;-89
2022/01/27 04:53:18;;;;;;;;;49.75;38.75;;;;;6.16;65.03;102889.63;6312298;22;45192;-88
2022/01/27 04:55:46;;;;;;;;;49.00;41.25;;;;;6.10;64.70;102866.69;6312417;22;45290;-88
2022/01/27 04:58:16;;;;;;;;;49.75;38.00;;;;;6.10;64.81;102868.41;6283581;22;45314;-89
2022/01/27 05:00:45;;;;;;;;;45.25;38.75;;;;;6.00;64.95;102850.47;6312347;22;46164;-88
2022/01/27 05:03:38;;;;;;;;;43.00;37.75;;;;;6.10;64.92;102887.59;6282600;22;45471;-90
2022/01/27 05:06:02;;;;;;;;;48.25;42.25;;;;;6.10;64.88;102890.22;6310149;22;45267;-89
2022/01/27 05:08:27;;;;;;;;;48.50;40.00;;;;;6.06;64.98;102882.13;6284079;22;45186;-88
2022/01/27 05:14:07;;;;;;;;;57.50;42.50;;;;;5.91;64.70;102841.31;6288876;22;45176;-88
2022/01/27 05:16:40;;;;;;;;;49.50;38.00;;;;;5.99;65.02;102865.25;6311888;22;45109;-89
2022/01/27 05:19:06;;;;;;;;;45.75;40.50;;;;;5.96;64.79;102855.56;6314767;22;46059;-90
2022/01/27 05:21:34;;;;;;;;;48.25;38.00;;;;;5.79;65.10;102832.84;6286529;22;46075;-88
2022/01/27 05:24:03;;;;;;;;;46.00;37.00;;;;;5.95;65.15;102855.47;6288102;22;45400;-89
2022/01/27 05:26:33;;;;;;;;;50.50;38.75;;;;;5.86;64.98;102848.03;6286435;22;45360;-88
2022/01/27 05:29:05;;;;;;;;;50.50;40.75;;;;;5.84;64.92;102835.72;6287864;22;45561;-90
2022/01/27 05:31:36;;;;;;;;;53.75;40.25;;;;;5.96;65.00;102872.94;6282758;22;47926;-88
2022/01/27 05:34:01;;;;;;;;;45.75;38.75;;;;;5.94;65.28;102867.66;6284599;22;45223;-89
2022/01/27 05:36:42;;;;;;;;;51.00;39.25;;;;;5.85;65.22;102845.34;6311128;22;45299;-89
2022/01/27 05:39:12;;;;;;;;;45.00;37.00;;;;;5.89;65.27;102856.03;6312494;22;45145;-89
2022/01/27 05:41:40;;;;;;;;;45.75;40.00;;;;;5.89;65.25;102848.19;6282923;22;46372;-88
2022/01/27 05:44:05;;;;;;;;;56.00;39.50;;;;;5.94;65.17;102858.91;6310810;22;45771;-88
2022/01/27 05:46:36;;;;;;;;;56.00;42.00;;;;;5.93;65.07;102851.84;6282807;22;45172;-89
2022/01/27 05:49:04;;;;;;;;;56.25;41.50;;;;;6.04;65.07;102883.78;6285188;22;45294;-88
2022/01/27 05:51:35;;;;;;;;;45.00;35.75;;;;;6.02;65.02;102874.97;6311136;22;45308;-89
2022/01/27 05:54:10;;;;;;;;;46.75;39.25;;;;;5.84;65.21;102843.56;6285757;22;45253;-90
2022/01/27 05:56:43;;;;;;;;;46.50;38.50;;;;;5.89;65.28;102852.53;6283838;22;45208;-90
2022/01/27 05:59:18;;;;;;;;;54.00;41.25;;;;;5.96;65.21;102865.09;6285132;22;45442;-89
2022/01/27 06:01:44;;;;;;;;;44.25;37.25;;;;;5.86;65.39;102858.50;6285696;22;47182;-90
2022/01/27 06:04:11;;;;;;;;;47.50;40.00;;;;;5.91;65.38;102870.06;6284685;22;45304;-92
2022/01/27 06:06:45;;;;;;;;;43.75;37.00;;;;;5.71;65.26;102835.09;6289564;22;45426;-89
2022/01/27 06:09:24;;;;;;;;;50.25;39.50;;;;;5.92;65.63;102876.19;6290380;22;45405;-94
2022/01/27 06:11:55;;;;;;;;;44.75;40.00;;;;;5.78;65.51;102853.72;6284512;22;47066;-90
2022/01/27 06:14:20;;;;;;;;;47.50;38.75;;;;;5.91;65.26;102877.03;6286335;22;45188;-89
2022/01/27 06:16:46;;;;;;;;;41.50;37.00;;;;;5.86;65.51;102868.06;6283072;22;45419;-89
2022/01/27 06:19:18;;;;;;;;;46.50;37.00;;;;;5.78;65.22;102857.22;6312619;22;45373;-90
2022/01/27 06:21:45;;;;;;;;;49.25;37.00;;;;;5.95;65.17;102890.34;6285665;22;47425;-89
2022/01/27 06:24:17;;;;;;;;;41.25;33.25;;;;;5.84;65.54;102869.69;6282168;22;45244;-89
2022/01/27 06:26:47;;;;;;;;;46.50;40.00;;;;;5.86;65.37;102876.78;6317847;22;44622;-88
2022/01/27 06:29:15;;;;;;;;;45.50;38.75;;;;;5.86;65.48;102876.78;6284669;22;45358;-90
2022/01/27 06:31:46;;;;;;;;;48.25;40.00;;;;;5.91;65.48;102891.00;6297568;22;47151;-88
2022/01/27 06:34:14;;;;;;;;;51.25;39.50;;;;;5.72;65.35;102862.13;6328942;22;44694;-89
2022/01/27 06:36:44;;;;;;;;;47.00;37.75;;;;;5.75;65.69;102868.41;6293392;22;45201;-89
2022/01/27 06:39:10;;;;;;;;;49.25;40.00;;;;;5.90;65.54;102886.56;6285628;22;45531;-90
2022/01/27 06:41:42;;;;;;;;;46.50;38.00;;;;;5.90;65.53;102897.00;6292493;22;47265;-89
2022/01/27 06:44:14;;;;;;;;;43.75;35.25;;;;;5.83;65.55;102880.97;6283947;22;45319;-89
2022/01/27 06:46:47;;;;;;;;;44.00;35.25;;;;;5.90;65.56;102903.97;6283358;22;45215;-92
2022/01/27 06:49:18;;;;;;;;;46.50;38.75;;;;;5.81;65.87;102880.00;6314987;22;45267;-88
2022/01/27 06:51:49;;;;;;;;;39.25;33.00;;;;;5.82;65.60;102884.38;6283099;22;47164;-89
2022/01/27 06:54:17;;;;;;;;;50.75;39.00;;;;;5.85;65.51;102895.88;6283321;22;45252;-89
2022/01/27 06:56:43;;;;;;;;;48.50;38.00;;;;;5.87;65.61;102889.03;6289148;22;45104;-89
2022/01/27 06:59:09;;;;;;;;;40.75;35.50;;;;;5.76;65.75;102866.69;6283569;22;45402;-90
2022/01/27 07:01:39;;;;;;;;;46.00;37.25;;;;;5.85;65.79;102877.59;6285343;22;48199;-89
2022/01/27 07:04:07;;;;;;;;;50.75;40.75;;;;;5.95;65.53;102887.72;6297017;22;45371;-89
2022/01/27 07:06:34;;;;;;;;;42.50;34.75;;;;;5.91;65.64;102880.53;6299530;22;45103;-90
2022/01/27 07:09:08;;;;;;;;;53.25;41.25;;;;;5.78;65.39;102862.44;6284883;22;45374;-89
2022/01/27 07:11:41;;;;;;;;;57.25;38.75;;;;;5.74;65.61;102853.53;6318018;22;45414;-92
2022/01/27 07:14:07;;;;;;;;;38.75;33.50;;;;;5.89;65.55;102879.56;6284475;22;45209;-90
2022/01/27 07:16:38;;;;;;;;;42.50;34.75;;;;;5.88;65.46;102884.69;6283331;22;45278;-91
2022/01/27 07:19:03;;;;;;;;;43.75;35.75;;;;;5.80;65.68;102881.72;6287946;22;45424;-90
2022/01/27 07:21:28;;;;;;;;;41.25;36.50;;;;;5.90;65.72;102889.19;6314249;22;47202;-89
2022/01/27 07:24:02;;;;;;;;;48.25;37.75;;;;;5.67;65.46;102859.28;6291727;22;45223;-90
2022/01/27 07:26:29;;;;;;;;;39.75;36.75;;;;;5.86;65.74;102889.84;6292692;22;45441;-90
2022/01/27 07:29:03;;;;;;;;;50.25;40.25;;;;;5.75;65.81;102878.88;6290143;22;45587;-90
2022/01/27 07:31:33;;;;;;;;;44.25;37.25;;;;;5.89;65.96;102886.50;6290991;22;47619;-90
2022/01/27 07:33:59;;;;;;;;;45.50;35.75;;;;;5.80;65.88;102879.09;6285652;22;45105;-92
2022/01/27 07:36:28;;;;;;;;;50.50;37.25;;;;;5.77;65.97;102871.09;6285060;22;45332;-91
2022/01/27 07:38:54;;;;;;;;;46.00;34.75;;;;;5.81;65.75;102878.28;6289719;22;45395;-92
2022/01/27 07:41:22;;;;;;;;;44.50;35.75;;;;;5.77;66.04;102863.25;6285712;22;47856;-93
2022/01/27 07:43:48;;;;;;;;;45.75;37.25;;;;;5.84;65.98;102873.19;6289227;22;45573;-92
2022/01/27 07:46:14;;;;;;;;;47.00;38.75;;;;;5.88;65.91;102876.84;6293379;22;45168;-93
2022/01/27 07:48:44;;;;;;;;;44.50;39.25;;;;;5.89;66.06;102873.44;6292387;22;45182;-92
2022/01/27 07:51:10;;;;;;;;;45.25;39.00;;;;;6.00;65.85;102894.91;6296140;22;46736;-91
2022/01/27 07:53:49;;;;;;;;;;;;;;;;;;;;;
2022/01/27 07:56:17;;;;;;;;;43.50;36.50;;;;;5.87;66.25;102868.13;6322204;22;68811;-94
2022/01/27 07:58:45;;;;;;;;;49.25;37.25;;;;;6.00;66.03;102882.72;6298047;22;45373;-91
2022/01/27 08:01:18;;;;;;;;;45.25;34.25;;;;;6.06;65.75;102897.81;6288025;22;46939;-90
2022/01/27 08:03:47;;;;;;;;;41.75;34.75;;;;;6.08;65.85;102904.03;6314570;22;45283;-89
2022/01/27 08:06:12;;;;;;;;;48.25;39.25;;;;;5.96;66.08;102880.78;6284059;22;45203;-90
2022/01/27 08:08:50;;;;;;;;;43.50;36.25;;;;;6.09;65.92;102898.84;6310579;22;45149;-90
2022/01/27 08:11:20;;;;;;;;;47.00;37.75;;;;;6.00;65.76;102881.84;6285221;22;47370;-90
2022/01/27 08:13:51;;;;;;;;;40.00;37.25;;;;;6.07;65.81;102890.06;6312081;22;45150;-89
2022/01/27 08:16:19;;;;;;;;;32.75;28.25;;;;;6.01;65.61;102886.22;6308134;22;45380;-89
2022/01/27 08:18:49;;;;;;;;;44.75;37.00;;;;;6.16;65.79;102905.31;6285520;22;45160;-87
2022/01/27 08:21:17;;;;;;;;;43.75;34.25;;;;;6.14;66.00;102893.88;6281093;22;46639;-89
2022/01/27 08:23:44;;;;;;;;;53.75;40.00;;;;;6.18;65.81;102901.06;6285199;22;45491;-88
2022/01/27 08:26:15;;;;;;;;;40.50;32.00;;;;;6.23;65.94;102907.41;6282247;22;45197;-89
2022/01/27 08:28:49;;;;;;;;;38.00;35.50;;;;;6.16;65.83;102893.13;6285822;22;45455;-89
2022/01/27 08:31:22;;;;;;;;;50.00;40.00;;;;;6.22;65.74;102907.31;6282596;22;47076;-89
2022/01/27 08:34:04;;;;;;;;;52.75;36.75;;;;;6.15;65.57;102899.19;6286383;22;45585;-88
2022/01/27 08:36:31;;;;;;;;;47.00;34.00;;;;;6.24;66.16;102916.16;6283111;22;45356;-92
2022/01/27 08:38:59;;;;;;;;;43.00;32.75;;;;;6.04;65.65;102879.47;6285105;22;45469;-86
2022/01/27 08:41:24;;;;;;;;;51.50;37.00;;;;;6.25;65.67;102913.59;6283156;22;46098;-88
2022/01/27 08:43:55;;;;;;;;;37.25;35.00;;;;;6.10;65.88;102879.75;6283158;22;45325;-89
2022/01/27 08:46:25;;;;;;;;;45.25;37.25;;;;;6.23;65.53;102893.41;6313346;22;45163;-89
2022/01/27 08:48:55;;;;;;;;;41.75;37.50;;;;;6.09;65.72;102869.22;6283174;22;45460;-90
2022/01/27 08:51:25;;;;;;;;;42.25;37.00;;;;;6.24;65.80;102890.88;6287379;22;48084;-91
2022/01/27 08:53:55;;;;;;;;;48.75;37.25;;;;;6.31;65.76;102894.72;6308825;22;45256;-89
2022/01/27 08:56:23;;;;;;;;;40.00;37.75;;;;;6.27;65.64;102882.28;6285343;22;45155;-90
2022/01/27 08:58:53;;;;;;;;;40.00;33.00;;;;;6.41;65.36;102907.38;6287446;22;45117;-92
2022/01/27 09:01:23;;;;;;;;;42.25;37.00;;;;;6.28;65.67;102865.75;6285564;22;47091;-89
2022/01/27 09:03:50;;;;;;;;;43.25;37.25;;;;;6.49;65.72;102900.78;6314555;22;45124;-90
2022/01/27 09:06:31;;;;;;;;;;;;;;;;;;;;;
2022/01/27 09:09:02;;;;;;;;;45.25;36.25;;;;;6.52;65.74;102885.28;6310964;22;72906;-92
2022/01/27 09:11:31;;;;;;;;;48.00;36.50;;;;;6.60;65.76;102897.00;6285710;22;46941;-90
2022/01/27 09:14:00;;;;;;;;;48.75;36.25;;;;;6.63;65.25;102889.28;6282370;22;45231;-89
2022/01/27 09:16:36;;;;;;;;;37.00;32.00;;;;;6.67;65.16;102884.19;6282336;22;45558;-90
2022/01/27 09:19:03;;;;;;;;;42.75;36.50;;;;;6.62;65.30;102884.84;6283499;22;45400;-91
2022/01/27 09:21:45;;;;;;;;;42.25;35.00;;;;;6.58;65.13;102866.34;6285838;22;48098;-92
2022/01/27 09:24:19;;;;;;;;;52.75;37.00;;;;;6.62;65.07;102863.03;6310247;22;45393;-92
2022/01/27 09:26:59;;;;;;;;;47.00;37.00;;;;;6.73;64.96;102882.75;6284011;22;45563;-90
2022/01/27 09:29:28;;;;;;;;;40.75;34.50;;;;;6.76;64.94;102884.59;6285588;22;45385;-90
2022/01/27 09:31:54;;;;;;;;;43.50;37.00;;;;;6.80;65.08;102883.94;6310847;22;45372;-91
2022/01/27 09:34:23;;;;;;;;;45.75;36.75;;;;;6.82;64.87;102892.75;6294566;22;44926;-90
2022/01/27 09:36:53;;;;;;;;;45.00;35.00;;;;;6.84;64.74;102881.53;6296250;22;44695;-90
2022/01/27 09:39:19;;;;;;;;;36.50;30.75;;;;;6.73;64.79;102864.41;6296627;22;45040;-93
2022/01/27 09:41:51;;;;;;;;;37.00;33.00;;;;;6.76;64.76;102861.03;6291207;22;46954;-89
2022/01/27 09:44:18;;;;;;;;;46.25;35.00;;;;;6.86;64.53;102876.34;6308850;22;45655;-90
2022/01/27 09:46:46;;;;;;;;;42.75;36.25;;;;;6.83;64.47;102865.75;6309135;22;45253;-90
2022/01/27 09:49:29;;;;;;;;;40.25;32.00;;;;;6.85;64.54;102859.75;6287815;22;45412;-90
2022/01/27 09:52:00;;;;;;;;;38.50;33.00;;;;;6.91;64.49;102863.47;6291675;22;47295;-89
2022/01/27 09:54:33;;;;;;;;;42.50;36.25;;;;;7.09;64.29;102885.28;6319946;22;45167;-88
2022/01/27 09:57:02;;;;;;;;;47.50;36.00;;;;;7.10;64.40;102884.44;6286345;22;44806;-89
2022/01/27 09:59:30;;;;;;;;;47.00;36.00;;;;;7.14;64.29;102873.28;6283566;22;45184;-89
2022/01/27 10:02:02;;;;;;;;;40.50;33.50;;;;;7.18;64.12;102872.56;6282730;22;47096;-89
2022/01/27 10:04:57;;;;;;;;;40.75;36.75;;;;;7.18;64.36;102875.19;6285625;22;45316;-90
2022/01/27 10:07:31;;;;;;;;;33.00;32.75;;;;;7.20;64.18;102868.31;6284332;22;45114;-92
2022/01/27 10:10:02;;;;;;;;;45.50;36.75;;;;;7.23;64.64;102867.53;6287966;22;45201;-91
2022/01/27 10:12:35;;;;;;;;;47.00;39.00;;;;;7.20;64.21;102859.56;6301276;22;47523;-90
2022/01/27 10:15:17;;;;;;;;;40.75;34.00;;;;;7.28;64.11;102855.53;6300132;22;44686;-92
2022/01/27 10:18:07;;;;;;;;;40.00;36.00;;;;;7.36;64.13;102862.03;6315725;22;45283;-90
2022/01/27 10:20:43;;;;;;;;;46.50;33.75;;;;;7.40;63.82;102873.50;6291767;22;44783;-90
2022/01/27 10:23:23;;;;;;;;;27.25;26.25;;;;;7.29;63.80;102849.47;6284896;22;46833;-88
2022/01/27 10:25:56;;;;;;;;;42.00;34.75;;;;;7.36;63.67;102854.16;6286121;22;45356;-89
2022/01/27 10:34:30;;;;;;;;;45.25;33.75;;;;;7.50;63.56;102873.09;6314416;22;46509;-86
2022/01/27 10:37:03;;;;;;;;;37.00;33.50;;;;;7.33;63.71;102833.06;6307330;22;45216;-84
2022/01/27 10:39:39;;;;;;;;;51.75;38.25;;;;;7.49;63.69;102847.72;6308630;22;45357;-84
2022/01/27 10:42:12;;;;;;;;;38.50;31.50;;;;;7.50;63.76;102826.81;6282674;22;45342;-91
2022/01/27 10:44:54;;;;;;;;;35.00;32.75;;;;;7.60;63.57;102837.69;6280929;22;47353;-90
2022/01/27 10:47:25;;;;;;;;;43.00;36.75;;;;;7.68;63.66;102846.78;6295730;22;45394;-89
2022/01/27 10:50:12;;;;;;;;;45.50;30.75;;;;;7.68;63.28;102825.81;6283519;22;45264;-89
2022/01/27 10:52:57;;;;;;;;;40.00;33.00;;;;;7.86;63.21;102859.78;6274925;22;45567;-88
2022/01/27 10:55:24;;;;;;;;;39.50;31.75;;;;;7.92;63.10;102862.63;6285966;22;47631;-90
2022/01/27 10:57:52;;;;;;;;;49.75;36.00;;;;;7.95;62.89;102868.00;6280973;22;45190;-91
2022/01/27 11:00:24;;;;;;;;;38.25;32.00;;;;;7.87;62.95;102851.94;6277778;22;45428;-85
2022/01/27 11:02:59;;;;;;;;;37.00;34.25;;;;;7.93;63.00;102854.81;6283711;22;45700;-87
2022/01/27 11:05:42;;;;;;;;;42.75;37.00;;;;;7.95;62.72;102861.03;6280095;22;47217;-90
2022/01/27 11:08:08;;;;;;;;;45.75;36.50;;;;;8.03;62.94;102870.94;6306858;22;45263;-88
2022/01/27 11:10:35;;;;;;;;;47.25;36.75;;;;;8.02;62.78;102874.38;6282953;22;45140;-89
2022/01/27 11:13:03;;;;;;;;;37.75;33.00;;;;;8.03;62.66;102882.31;6311750;22;45274;-90
2022/01/27 11:15:28;;;;;;;;;39.25;31.75;;;;;7.99;62.83;102877.78;6308928;22;45361;-88
2022/01/27 11:17:56;;;;;;;;;45.50;35.75;;;;;7.86;62.50;102846.66;6281381;22;45518;-88
2022/01/27 11:20:43;;;;;;;;;44.00;37.75;;;;;7.95;62.65;102861.03;6311457;22;44776;-91
2022/01/27 11:23:35;;;;;;;;;49.75;38.00;;;;;7.91;62.74;102845.09;6277837;22;45307;-90
2022/01/27 11:26:00;;;;;;;;;42.25;33.25;;;;;7.90;62.25;102862.56;6309684;22;45411;-85
2022/01/27 11:28:27;;;;;;;;;42.50;35.75;;;;;7.92;62.89;102852.16;6315318;22;45243;-88
2022/01/27 11:31:04;;;;;;;;;48.75;38.50;;;;;7.89;62.87;102850.28;6309042;22;45230;-88
2022/01/27 11:33:35;;;;;;;;;42.50;36.00;;;;;7.94;62.74;102846.13;6286118;22;45508;-88
2022/01/27 11:36:23;;;;;;;;;47.00;38.00;;;;;7.80;62.73;102817.53;6290092;22;47290;-89
2022/01/27 11:38:52;;;;;;;;;47.25;36.50;;;;;7.94;62.74;102843.50;6280794;22;45311;-88
2022/01/27 11:41:56;;;;;;;;;50.00;35.75;;;;;8.00;62.71;102845.50;6287973;22;45358;-87
2022/01/27 11:44:34;;;;;;;;;40.75;35.75;;;;;8.03;62.85;102836.84;6279703;22;45334;-86
2022/01/27 11:47:12;;;;;;;;;49.75;38.50;;;;;8.05;62.64;102828.22;6307943;22;46502;-87
2022/01/27 11:50:07;;;;;;;;;36.00;29.75;;;;;7.97;62.58;102802.50;6287784;22;45241;-85
2022/01/27 11:53:00;;;;;;;;;41.25;33.50;;;;;8.04;62.63;102817.66;6280341;22;45240;-87
2022/01/27 11:55:29;;;;;;;;;39.00;35.25;;;;;8.12;62.73;102824.97;6302121;22;45228;-85
2022/01/27 11:58:01;;;;;;;;;40.00;35.75;;;;;8.07;62.68;102812.50;6284815;22;48227;-84
2022/01/27 12:00:30;;;;;;;;;37.50;34.00;;;;;8.13;62.95;102810.16;6306541;22;45621;-88
2022/01/27 12:03:12;;;;;;;;;43.25;36.50;;;;;8.26;62.71;102822.94;6315763;22;45376;-86
2022/01/27 12:05:45;;;;;;;;;40.75;33.25;;;;;8.14;62.54;102801.44;6283542;22;45310;-86
2022/01/27 12:08:13;;;;;;;;;43.00;35.50;;;;;8.37;62.33;102829.47;6309057;22;45595;-86
2022/01/27 12:10:51;;;;;;;;;37.50;34.50;;;;;8.39;62.63;102826.94;6286601;22;45932;-86
2022/01/27 12:13:39;;;;;;;;;37.25;33.50;;;;;8.45;62.58;102819.31;6309693;22;45405;-88
2022/01/27 12:16:57;;;;;;;;;44.25;36.75;;;;;8.48;62.13;102826.41;6284200;22;45453;-85
2022/01/27 12:19:02;;;;;;;;;40.25;35.50;;;;;8.47;62.11;102827.22;6294585;22;45417;-87
2022/01/27 12:21:57;;;;;;;;;41.25;36.75;;;;;8.41;62.46;102827.00;6309003;22;45270;-87
2022/01/27 12:24:35;;;;;;;;;40.00;35.25;;;;;8.33;62.58;102806.56;6281496;22;45239;-88
2022/01/27 12:27:17;;;;;;;;;47.00;36.25;;;;;8.48;62.47;102835.19;6315737;22;45467;-87